sensor_id;sensor_type;location;lat;lon;timestamp;temperature;humidity
20803;DHT22;10562;-33.856;151.182;2024-02-14T00:00:33;30.00;99.90
20803;DHT22;10562;-33.856;151.182;2024-02-14T00:03:04;30.10;99.90
20803;DHT22;10562;-33.856;151.182;2024-02-14T00:05:34;30.10;99.90
20803;DHT22;10562;-33.856;151.182;2024-02-14T00:08:06;30.10;99.90
20803;DHT22;10562;-33.856;151.182;2024-02-14T00:10:37;30.10;99.90
20803;DHT22;10562;-33.856;151.182;2024-02-14T00:13:07;30.10;99.90
20803;DHT22;10562;-33.856;151.182;2024-02-14T00:15:40;30.10;99.90
20803;DHT22;10562;-33.856;151.182;2024-02-14T00:18:11;30.10;99.90
20803;DHT22;10562;-33.856;151.182;2024-02-14T00:20:43;30.10;99.90
20803;DHT22;10562;-33.856;151.182;2024-02-14T00:23:13;30.10;99.90
20803;DHT22;10562;-33.856;151.182;2024-02-14T00:25:44;29.90;99.90
20803;DHT22;10562;-33.856;151.182;2024-02-14T00:28:15;30.00;99.90
20803;DHT22;10562;-33.856;151.182;2024-02-14T00:30:47;30.20;99.90
20803;DHT22;10562;-33.856;151.182;2024-02-14T00:33:18;30.50;99.90
20803;DHT22;10562;-33.856;151.182;2024-02-14T00:35:51;30.80;99.90
20803;DHT22;10562;-33.856;151.182;2024-02-14T00:38:22;31.00;99.90
20803;DHT22;10562;-33.856;151.182;2024-02-14T00:40:55;31.30;99.90
20803;DHT22;10562;-33.856;151.182;2024-02-14T00:43:38;31.60;99.90
20803;DHT22;10562;-33.856;151.182;2024-02-14T00:46:16;32.10;99.90
20803;DHT22;10562;-33.856;151.182;2024-02-14T00:48:51;32.30;99.90
20803;DHT22;10562;-33.856;151.182;2024-02-14T00:51:24;32.40;99.90
20803;DHT22;10562;-33.856;151.182;2024-02-14T00:53:55;32.40;99.90
20803;DHT22;10562;-33.856;151.182;2024-02-14T00:56:25;32.30;99.90
20803;DHT22;10562;-33.856;151.182;2024-02-14T00:58:56;32.40;99.90
20803;DHT22;10562;-33.856;151.182;2024-02-14T01:01:30;32.20;99.90
20803;DHT22;10562;-33.856;151.182;2024-02-14T01:04:01;32.10;99.90
20803;DHT22;10562;-33.856;151.182;2024-02-14T01:06:32;32.00;99.90
20803;DHT22;10562;-33.856;151.182;2024-02-14T01:09:04;31.90;99.90
20803;DHT22;10562;-33.856;151.182;2024-02-14T01:11:36;31.80;99.90
20803;DHT22;10562;-33.856;151.182;2024-02-14T01:14:08;31.80;99.90
20803;DHT22;10562;-33.856;151.182;2024-02-14T01:16:45;31.90;99.90
20803;DHT22;10562;-33.856;151.182;2024-02-14T01:19:16;32.10;99.90
20803;DHT22;10562;-33.856;151.182;2024-02-14T01:21:48;32.40;99.90
20803;DHT22;10562;-33.856;151.182;2024-02-14T01:24:19;32.80;99.90
20803;DHT22;10562;-33.856;151.182;2024-02-14T01:26:50;33.10;99.90
20803;DHT22;10562;-33.856;151.182;2024-02-14T01:29:21;33.20;99.90
20803;DHT22;10562;-33.856;151.182;2024-02-14T01:31:55;33.20;99.90
20803;DHT22;10562;-33.856;151.182;2024-02-14T01:34:26;33.30;99.90
20803;DHT22;10562;-33.856;151.182;2024-02-14T01:36:57;33.20;99.90
20803;DHT22;10562;-33.856;151.182;2024-02-14T01:39:28;33.30;99.90
20803;DHT22;10562;-33.856;151.182;2024-02-14T01:41:59;33.50;99.90
20803;DHT22;10562;-33.856;151.182;2024-02-14T01:44:33;33.70;99.90
20803;DHT22;10562;-33.856;151.182;2024-02-14T01:47:06;33.70;99.90
20803;DHT22;10562;-33.856;151.182;2024-02-14T01:49:38;33.70;99.90
20803;DHT22;10562;-33.856;151.182;2024-02-14T01:52:12;33.80;99.90
20803;DHT22;10562;-33.856;151.182;2024-02-14T01:54:43;33.90;99.90
20803;DHT22;10562;-33.856;151.182;2024-02-14T01:57:14;34.00;99.90
20803;DHT22;10562;-33.856;151.182;2024-02-14T01:59:45;33.90;99.90
20803;DHT22;10562;-33.856;151.182;2024-02-14T02:02:19;34.10;99.90
20803;DHT22;10562;-33.856;151.182;2024-02-14T02:04:50;34.20;99.90
20803;DHT22;10562;-33.856;151.182;2024-02-14T02:07:20;33.50;99.90
20803;DHT22;10562;-33.856;151.182;2024-02-14T02:09:51;33.30;99.90
20803;DHT22;10562;-33.856;151.182;2024-02-14T02:12:22;33.40;99.90
20803;DHT22;10562;-33.856;151.182;2024-02-14T02:15:00;33.20;99.90
20803;DHT22;10562;-33.856;151.182;2024-02-14T02:17:33;32.80;99.90
20803;DHT22;10562;-33.856;151.182;2024-02-14T02:20:04;32.50;99.90
20803;DHT22;10562;-33.856;151.182;2024-02-14T02:22:36;32.50;99.90
20803;DHT22;10562;-33.856;151.182;2024-02-14T02:25:11;32.30;99.90
20803;DHT22;10562;-33.856;151.182;2024-02-14T02:27:42;32.20;99.90
20803;DHT22;10562;-33.856;151.182;2024-02-14T02:30:13;32.10;99.90
20803;DHT22;10562;-33.856;151.182;2024-02-14T02:32:44;32.10;99.90
20803;DHT22;10562;-33.856;151.182;2024-02-14T02:35:15;31.90;99.90
20803;DHT22;10562;-33.856;151.182;2024-02-14T02:37:47;31.90;99.90
20803;DHT22;10562;-33.856;151.182;2024-02-14T02:40:24;31.80;99.90
20803;DHT22;10562;-33.856;151.182;2024-02-14T02:42:55;31.60;99.90
20803;DHT22;10562;-33.856;151.182;2024-02-14T02:45:26;31.30;99.90
20803;DHT22;10562;-33.856;151.182;2024-02-14T02:47:57;31.40;99.90
20803;DHT22;10562;-33.856;151.182;2024-02-14T02:50:28;31.50;99.90
20803;DHT22;10562;-33.856;151.182;2024-02-14T02:53:00;31.40;99.90
20803;DHT22;10562;-33.856;151.182;2024-02-14T02:55:32;31.30;99.90
20803;DHT22;10562;-33.856;151.182;2024-02-14T02:58:07;31.40;99.90
20803;DHT22;10562;-33.856;151.182;2024-02-14T03:00:39;31.50;99.90
20803;DHT22;10562;-33.856;151.182;2024-02-14T03:03:10;31.70;99.90
20803;DHT22;10562;-33.856;151.182;2024-02-14T03:05:41;31.50;99.90
20803;DHT22;10562;-33.856;151.182;2024-02-14T03:08:14;31.80;99.90
20803;DHT22;10562;-33.856;151.182;2024-02-14T03:10:49;31.80;99.90
20803;DHT22;10562;-33.856;151.182;2024-02-14T03:13:25;31.60;99.90
20803;DHT22;10562;-33.856;151.182;2024-02-14T03:15:56;31.50;99.90
20803;DHT22;10562;-33.856;151.182;2024-02-14T03:18:27;31.40;99.90
20803;DHT22;10562;-33.856;151.182;2024-02-14T03:20:58;31.30;99.90
20803;DHT22;10562;-33.856;151.182;2024-02-14T03:23:28;31.40;99.90
20803;DHT22;10562;-33.856;151.182;2024-02-14T03:26:02;31.10;99.90
20803;DHT22;10562;-33.856;151.182;2024-02-14T03:28:35;31.10;99.90
20803;DHT22;10562;-33.856;151.182;2024-02-14T03:31:07;31.00;99.90
20803;DHT22;10562;-33.856;151.182;2024-02-14T03:33:43;31.10;99.90
20803;DHT22;10562;-33.856;151.182;2024-02-14T03:36:14;30.90;99.90
20803;DHT22;10562;-33.856;151.182;2024-02-14T03:38:45;30.90;99.90
20803;DHT22;10562;-33.856;151.182;2024-02-14T03:41:18;30.70;99.90
20803;DHT22;10562;-33.856;151.182;2024-02-14T03:43:49;30.50;99.90
20803;DHT22;10562;-33.856;151.182;2024-02-14T03:46:22;30.60;99.90
20803;DHT22;10562;-33.856;151.182;2024-02-14T03:48:53;30.90;99.90
20803;DHT22;10562;-33.856;151.182;2024-02-14T03:51:24;31.10;99.90
20803;DHT22;10562;-33.856;151.182;2024-02-14T03:53:55;31.30;99.90
20803;DHT22;10562;-33.856;151.182;2024-02-14T03:56:28;31.30;99.90
20803;DHT22;10562;-33.856;151.182;2024-02-14T03:59:00;31.10;99.90
20803;DHT22;10562;-33.856;151.182;2024-02-14T04:01:33;31.20;99.90
20803;DHT22;10562;-33.856;151.182;2024-02-14T04:04:04;31.00;99.90
20803;DHT22;10562;-33.856;151.182;2024-02-14T04:06:35;30.80;99.90
20803;DHT22;10562;-33.856;151.182;2024-02-14T04:09:06;30.50;99.90
20803;DHT22;10562;-33.856;151.182;2024-02-14T04:11:39;30.50;99.90
20803;DHT22;10562;-33.856;151.182;2024-02-14T04:14:09;30.20;99.90
20803;DHT22;10562;-33.856;151.182;2024-02-14T04:16:40;29.80;99.90
20803;DHT22;10562;-33.856;151.182;2024-02-14T04:19:11;29.50;99.90
20803;DHT22;10562;-33.856;151.182;2024-02-14T04:21:45;29.30;99.90
20803;DHT22;10562;-33.856;151.182;2024-02-14T04:24:17;29.10;99.90
20803;DHT22;10562;-33.856;151.182;2024-02-14T04:27:02;29.10;99.90
20803;DHT22;10562;-33.856;151.182;2024-02-14T04:29:33;29.20;99.90
20803;DHT22;10562;-33.856;151.182;2024-02-14T04:32:04;28.90;99.90
20803;DHT22;10562;-33.856;151.182;2024-02-14T04:34:53;29.00;99.90
20803;DHT22;10562;-33.856;151.182;2024-02-14T04:37:35;28.70;99.90
20803;DHT22;10562;-33.856;151.182;2024-02-14T04:40:08;28.60;99.90
20803;DHT22;10562;-33.856;151.182;2024-02-14T04:42:40;28.50;99.90
20803;DHT22;10562;-33.856;151.182;2024-02-14T04:45:11;28.20;99.90
20803;DHT22;10562;-33.856;151.182;2024-02-14T04:47:42;28.10;99.90
20803;DHT22;10562;-33.856;151.182;2024-02-14T04:50:13;28.00;99.90
20803;DHT22;10562;-33.856;151.182;2024-02-14T04:52:45;27.90;99.90
20803;DHT22;10562;-33.856;151.182;2024-02-14T04:55:16;27.70;99.90
20803;DHT22;10562;-33.856;151.182;2024-02-14T04:57:55;27.50;99.90
20803;DHT22;10562;-33.856;151.182;2024-02-14T05:00:26;27.40;99.90
20803;DHT22;10562;-33.856;151.182;2024-02-14T05:02:57;27.30;99.90
20803;DHT22;10562;-33.856;151.182;2024-02-14T05:05:29;27.30;99.90
20803;DHT22;10562;-33.856;151.182;2024-02-14T05:08:18;27.20;99.90
20803;DHT22;10562;-33.856;151.182;2024-02-14T05:10:53;27.20;99.90
20803;DHT22;10562;-33.856;151.182;2024-02-14T05:13:25;27.50;99.90
20803;DHT22;10562;-33.856;151.182;2024-02-14T05:15:57;27.50;99.90
20803;DHT22;10562;-33.856;151.182;2024-02-14T05:18:28;27.70;99.90
20803;DHT22;10562;-33.856;151.182;2024-02-14T05:20:59;27.70;99.90
20803;DHT22;10562;-33.856;151.182;2024-02-14T05:23:30;27.90;99.90
20803;DHT22;10562;-33.856;151.182;2024-02-14T05:26:01;27.70;99.90
20803;DHT22;10562;-33.856;151.182;2024-02-14T05:28:34;27.40;99.90
20803;DHT22;10562;-33.856;151.182;2024-02-14T05:31:05;27.20;99.90
20803;DHT22;10562;-33.856;151.182;2024-02-14T05:33:36;27.30;99.90
20803;DHT22;10562;-33.856;151.182;2024-02-14T05:36:07;27.30;99.90
20803;DHT22;10562;-33.856;151.182;2024-02-14T05:38:38;27.10;99.90
20803;DHT22;10562;-33.856;151.182;2024-02-14T05:41:08;26.80;99.90
20803;DHT22;10562;-33.856;151.182;2024-02-14T05:43:41;26.80;99.90
20803;DHT22;10562;-33.856;151.182;2024-02-14T05:46:12;26.80;99.90
20803;DHT22;10562;-33.856;151.182;2024-02-14T05:48:44;26.60;99.90
20803;DHT22;10562;-33.856;151.182;2024-02-14T05:51:16;26.60;99.90
20803;DHT22;10562;-33.856;151.182;2024-02-14T05:53:46;26.30;99.90
20803;DHT22;10562;-33.856;151.182;2024-02-14T05:56:17;26.30;99.90
20803;DHT22;10562;-33.856;151.182;2024-02-14T05:58:51;26.10;99.90
20803;DHT22;10562;-33.856;151.182;2024-02-14T06:01:21;25.80;99.90
20803;DHT22;10562;-33.856;151.182;2024-02-14T06:03:52;25.60;99.90
20803;DHT22;10562;-33.856;151.182;2024-02-14T06:06:23;25.50;99.90
20803;DHT22;10562;-33.856;151.182;2024-02-14T06:08:53;25.40;99.90
20803;DHT22;10562;-33.856;151.182;2024-02-14T06:11:25;25.30;99.90
20803;DHT22;10562;-33.856;151.182;2024-02-14T06:13:58;25.30;99.90
20803;DHT22;10562;-33.856;151.182;2024-02-14T06:16:29;25.10;99.90
20803;DHT22;10562;-33.856;151.182;2024-02-14T06:18:59;25.10;99.90
20803;DHT22;10562;-33.856;151.182;2024-02-14T06:21:32;24.90;99.90
20803;DHT22;10562;-33.856;151.182;2024-02-14T06:24:03;24.90;99.90
20803;DHT22;10562;-33.856;151.182;2024-02-14T06:26:34;24.80;99.90
20803;DHT22;10562;-33.856;151.182;2024-02-14T06:29:06;24.70;99.90
20803;DHT22;10562;-33.856;151.182;2024-02-14T06:31:37;24.60;99.90
20803;DHT22;10562;-33.856;151.182;2024-02-14T06:34:08;24.40;99.90
20803;DHT22;10562;-33.856;151.182;2024-02-14T06:36:38;24.40;99.90
20803;DHT22;10562;-33.856;151.182;2024-02-14T06:39:09;24.30;99.90
20803;DHT22;10562;-33.856;151.182;2024-02-14T06:41:40;24.20;99.90
20803;DHT22;10562;-33.856;151.182;2024-02-14T06:44:14;24.10;99.90
20803;DHT22;10562;-33.856;151.182;2024-02-14T06:46:46;24.10;99.90
20803;DHT22;10562;-33.856;151.182;2024-02-14T06:49:17;24.10;99.90
20803;DHT22;10562;-33.856;151.182;2024-02-14T06:51:48;24.00;99.90
20803;DHT22;10562;-33.856;151.182;2024-02-14T06:54:19;23.90;99.90
20803;DHT22;10562;-33.856;151.182;2024-02-14T06:56:50;23.80;99.90
20803;DHT22;10562;-33.856;151.182;2024-02-14T06:59:23;23.80;99.90
20803;DHT22;10562;-33.856;151.182;2024-02-14T07:01:54;23.80;99.90
20803;DHT22;10562;-33.856;151.182;2024-02-14T07:04:24;23.80;99.90
20803;DHT22;10562;-33.856;151.182;2024-02-14T07:06:55;23.90;99.90
20803;DHT22;10562;-33.856;151.182;2024-02-14T07:09:26;23.90;99.90
20803;DHT22;10562;-33.856;151.182;2024-02-14T07:11:56;23.90;99.90
20803;DHT22;10562;-33.856;151.182;2024-02-14T07:14:29;23.80;99.90
20803;DHT22;10562;-33.856;151.182;2024-02-14T07:17:00;23.40;99.90
20803;DHT22;10562;-33.856;151.182;2024-02-14T07:19:31;23.20;99.90
20803;DHT22;10562;-33.856;151.182;2024-02-14T07:22:01;22.90;99.90
20803;DHT22;10562;-33.856;151.182;2024-02-14T07:24:32;22.70;99.90
20803;DHT22;10562;-33.856;151.182;2024-02-14T07:27:03;22.70;99.90
20803;DHT22;10562;-33.856;151.182;2024-02-14T07:29:36;22.60;99.90
20803;DHT22;10562;-33.856;151.182;2024-02-14T07:32:07;22.50;99.90
20803;DHT22;10562;-33.856;151.182;2024-02-14T07:34:40;22.40;99.90
20803;DHT22;10562;-33.856;151.182;2024-02-14T07:37:10;22.30;99.90
20803;DHT22;10562;-33.856;151.182;2024-02-14T07:39:42;22.20;99.90
20803;DHT22;10562;-33.856;151.182;2024-02-14T07:42:14;22.30;99.90
20803;DHT22;10562;-33.856;151.182;2024-02-14T07:44:47;22.20;99.90
20803;DHT22;10562;-33.856;151.182;2024-02-14T07:47:17;22.20;99.90
20803;DHT22;10562;-33.856;151.182;2024-02-14T07:49:48;22.20;99.90
20803;DHT22;10562;-33.856;151.182;2024-02-14T07:52:20;22.10;99.90
20803;DHT22;10562;-33.856;151.182;2024-02-14T07:54:53;22.10;99.90
20803;DHT22;10562;-33.856;151.182;2024-02-14T07:57:24;22.00;99.90
20803;DHT22;10562;-33.856;151.182;2024-02-14T08:00:22;22.10;99.90
20803;DHT22;10562;-33.856;151.182;2024-02-14T08:03:02;22.00;99.90
20803;DHT22;10562;-33.856;151.182;2024-02-14T08:05:33;22.10;99.90
20803;DHT22;10562;-33.856;151.182;2024-02-14T08:08:04;21.90;99.90
20803;DHT22;10562;-33.856;151.182;2024-02-14T08:10:35;21.90;99.90
20803;DHT22;10562;-33.856;151.182;2024-02-14T08:13:06;21.90;99.90
20803;DHT22;10562;-33.856;151.182;2024-02-14T08:15:41;22.00;99.90
20803;DHT22;10562;-33.856;151.182;2024-02-14T08:18:14;21.90;99.90
20803;DHT22;10562;-33.856;151.182;2024-02-14T08:20:45;22.00;99.90
20803;DHT22;10562;-33.856;151.182;2024-02-14T08:23:19;21.90;99.90
20803;DHT22;10562;-33.856;151.182;2024-02-14T08:25:51;21.90;99.90
20803;DHT22;10562;-33.856;151.182;2024-02-14T08:28:22;21.90;99.90
20803;DHT22;10562;-33.856;151.182;2024-02-14T08:30:57;21.90;99.90
20803;DHT22;10562;-33.856;151.182;2024-02-14T08:33:30;21.80;99.90
20803;DHT22;10562;-33.856;151.182;2024-02-14T08:36:01;21.70;99.90
20803;DHT22;10562;-33.856;151.182;2024-02-14T08:38:33;21.70;99.90
20803;DHT22;10562;-33.856;151.182;2024-02-14T08:41:05;21.70;99.90
20803;DHT22;10562;-33.856;151.182;2024-02-14T08:43:37;21.60;99.90
20803;DHT22;10562;-33.856;151.182;2024-02-14T08:46:24;21.60;99.90
20803;DHT22;10562;-33.856;151.182;2024-02-14T08:48:56;21.50;99.90
20803;DHT22;10562;-33.856;151.182;2024-02-14T08:51:28;21.50;99.90
20803;DHT22;10562;-33.856;151.182;2024-02-14T08:53:59;21.50;99.90
20803;DHT22;10562;-33.856;151.182;2024-02-14T08:56:33;21.40;99.90
20803;DHT22;10562;-33.856;151.182;2024-02-14T08:59:06;21.40;99.90
20803;DHT22;10562;-33.856;151.182;2024-02-14T09:01:40;21.50;99.90
20803;DHT22;10562;-33.856;151.182;2024-02-14T09:04:14;21.40;99.90
20803;DHT22;10562;-33.856;151.182;2024-02-14T09:06:45;21.50;99.90
20803;DHT22;10562;-33.856;151.182;2024-02-14T09:09:17;21.40;99.90
20803;DHT22;10562;-33.856;151.182;2024-02-14T09:11:48;21.50;99.90
20803;DHT22;10562;-33.856;151.182;2024-02-14T09:14:23;21.50;99.90
20803;DHT22;10562;-33.856;151.182;2024-02-14T09:16:58;21.30;99.90
20803;DHT22;10562;-33.856;151.182;2024-02-14T09:19:28;21.30;99.90
20803;DHT22;10562;-33.856;151.182;2024-02-14T09:21:59;21.30;99.90
20803;DHT22;10562;-33.856;151.182;2024-02-14T09:24:34;21.30;99.90
20803;DHT22;10562;-33.856;151.182;2024-02-14T09:27:05;21.30;99.90
20803;DHT22;10562;-33.856;151.182;2024-02-14T09:29:36;21.30;99.90
20803;DHT22;10562;-33.856;151.182;2024-02-14T09:32:08;21.30;99.90
20803;DHT22;10562;-33.856;151.182;2024-02-14T09:34:39;21.30;99.90
20803;DHT22;10562;-33.856;151.182;2024-02-14T09:37:13;21.20;99.90
20803;DHT22;10562;-33.856;151.182;2024-02-14T09:39:46;21.10;99.90
20803;DHT22;10562;-33.856;151.182;2024-02-14T09:42:19;21.10;99.90
20803;DHT22;10562;-33.856;151.182;2024-02-14T09:44:54;21.10;99.90
20803;DHT22;10562;-33.856;151.182;2024-02-14T09:47:31;20.90;99.90
20803;DHT22;10562;-33.856;151.182;2024-02-14T09:50:04;20.90;99.90
20803;DHT22;10562;-33.856;151.182;2024-02-14T09:52:38;20.80;99.90
20803;DHT22;10562;-33.856;151.182;2024-02-14T09:55:10;20.90;99.90
20803;DHT22;10562;-33.856;151.182;2024-02-14T09:57:42;20.90;99.90
20803;DHT22;10562;-33.856;151.182;2024-02-14T10:00:14;20.90;99.90
20803;DHT22;10562;-33.856;151.182;2024-02-14T10:02:50;20.80;99.90
20803;DHT22;10562;-33.856;151.182;2024-02-14T10:05:22;20.80;99.90
20803;DHT22;10562;-33.856;151.182;2024-02-14T10:07:54;20.80;99.90
20803;DHT22;10562;-33.856;151.182;2024-02-14T10:10:26;20.90;99.90
20803;DHT22;10562;-33.856;151.182;2024-02-14T10:12:58;20.90;99.90
20803;DHT22;10562;-33.856;151.182;2024-02-14T10:15:29;20.90;99.90
20803;DHT22;10562;-33.856;151.182;2024-02-14T10:18:03;20.90;99.90
20803;DHT22;10562;-33.856;151.182;2024-02-14T10:20:34;20.80;99.90
20803;DHT22;10562;-33.856;151.182;2024-02-14T10:23:10;20.80;99.90
20803;DHT22;10562;-33.856;151.182;2024-02-14T10:25:41;20.90;99.90
20803;DHT22;10562;-33.856;151.182;2024-02-14T10:28:12;20.90;99.90
20803;DHT22;10562;-33.856;151.182;2024-02-14T10:30:46;20.90;99.90
20803;DHT22;10562;-33.856;151.182;2024-02-14T10:33:19;20.80;99.90
20803;DHT22;10562;-33.856;151.182;2024-02-14T10:35:51;20.80;99.90
20803;DHT22;10562;-33.856;151.182;2024-02-14T10:38:23;20.70;99.90
20803;DHT22;10562;-33.856;151.182;2024-02-14T10:40:55;20.70;99.90
20803;DHT22;10562;-33.856;151.182;2024-02-14T10:43:28;20.60;99.90
20803;DHT22;10562;-33.856;151.182;2024-02-14T10:46:04;20.50;99.90
20803;DHT22;10562;-33.856;151.182;2024-02-14T10:48:39;20.40;99.90
20803;DHT22;10562;-33.856;151.182;2024-02-14T10:51:13;20.40;99.90
20803;DHT22;10562;-33.856;151.182;2024-02-14T10:53:46;20.30;99.90
20803;DHT22;10562;-33.856;151.182;2024-02-14T10:56:19;20.30;99.90
20803;DHT22;10562;-33.856;151.182;2024-02-14T10:58:50;20.40;99.90
20803;DHT22;10562;-33.856;151.182;2024-02-14T11:01:29;20.40;99.90
20803;DHT22;10562;-33.856;151.182;2024-02-14T11:04:04;20.40;99.90
20803;DHT22;10562;-33.856;151.182;2024-02-14T11:06:45;20.40;99.90
20803;DHT22;10562;-33.856;151.182;2024-02-14T11:09:16;20.50;99.90
20803;DHT22;10562;-33.856;151.182;2024-02-14T11:11:47;20.50;99.90
20803;DHT22;10562;-33.856;151.182;2024-02-14T11:14:19;20.50;99.90
20803;DHT22;10562;-33.856;151.182;2024-02-14T11:16:53;20.50;99.90
20803;DHT22;10562;-33.856;151.182;2024-02-14T11:19:31;20.40;99.90
20803;DHT22;10562;-33.856;151.182;2024-02-14T11:22:11;20.50;99.90
20803;DHT22;10562;-33.856;151.182;2024-02-14T11:24:45;20.50;99.90
20803;DHT22;10562;-33.856;151.182;2024-02-14T11:27:18;20.50;99.90
20803;DHT22;10562;-33.856;151.182;2024-02-14T11:29:53;20.50;99.90
20803;DHT22;10562;-33.856;151.182;2024-02-14T11:32:27;20.50;99.90
20803;DHT22;10562;-33.856;151.182;2024-02-14T11:35:01;20.60;99.90
20803;DHT22;10562;-33.856;151.182;2024-02-14T11:37:34;20.40;99.90
20803;DHT22;10562;-33.856;151.182;2024-02-14T11:40:05;20.50;99.90
20803;DHT22;10562;-33.856;151.182;2024-02-14T11:42:36;20.50;99.90
20803;DHT22;10562;-33.856;151.182;2024-02-14T11:45:08;20.60;99.90
20803;DHT22;10562;-33.856;151.182;2024-02-14T11:47:39;20.60;99.90
20803;DHT22;10562;-33.856;151.182;2024-02-14T11:50:12;20.70;99.90
20803;DHT22;10562;-33.856;151.182;2024-02-14T11:52:43;20.70;99.90
20803;DHT22;10562;-33.856;151.182;2024-02-14T11:55:15;20.50;99.90
20803;DHT22;10562;-33.856;151.182;2024-02-14T11:57:47;20.40;99.90
20803;DHT22;10562;-33.856;151.182;2024-02-14T12:00:19;20.20;99.90
20803;DHT22;10562;-33.856;151.182;2024-02-14T12:02:50;20.10;99.90
20803;DHT22;10562;-33.856;151.182;2024-02-14T12:05:23;20.10;99.90
20803;DHT22;10562;-33.856;151.182;2024-02-14T12:07:54;20.00;99.90
20803;DHT22;10562;-33.856;151.182;2024-02-14T12:10:24;19.90;99.90
20803;DHT22;10562;-33.856;151.182;2024-02-14T12:12:56;19.90;99.90
20803;DHT22;10562;-33.856;151.182;2024-02-14T12:15:27;19.80;99.90
20803;DHT22;10562;-33.856;151.182;2024-02-14T12:17:58;19.70;99.90
20803;DHT22;10562;-33.856;151.182;2024-02-14T12:20:31;19.70;99.90
20803;DHT22;10562;-33.856;151.182;2024-02-14T12:23:01;19.70;99.90
20803;DHT22;10562;-33.856;151.182;2024-02-14T12:25:33;19.70;99.90
20803;DHT22;10562;-33.856;151.182;2024-02-14T12:28:04;19.70;99.90
20803;DHT22;10562;-33.856;151.182;2024-02-14T12:30:45;19.80;99.90
20803;DHT22;10562;-33.856;151.182;2024-02-14T12:33:17;19.90;99.90
20803;DHT22;10562;-33.856;151.182;2024-02-14T12:35:50;20.00;99.90
20803;DHT22;10562;-33.856;151.182;2024-02-14T12:38:21;19.90;99.90
20803;DHT22;10562;-33.856;151.182;2024-02-14T12:40:52;19.90;99.90
20803;DHT22;10562;-33.856;151.182;2024-02-14T12:43:23;20.00;99.90
20803;DHT22;10562;-33.856;151.182;2024-02-14T12:45:54;19.90;99.90
20803;DHT22;10562;-33.856;151.182;2024-02-14T12:48:25;20.00;99.90
20803;DHT22;10562;-33.856;151.182;2024-02-14T12:50:58;20.00;99.90
20803;DHT22;10562;-33.856;151.182;2024-02-14T12:53:28;19.90;99.90
20803;DHT22;10562;-33.856;151.182;2024-02-14T12:56:00;19.90;99.90
20803;DHT22;10562;-33.856;151.182;2024-02-14T12:58:32;19.90;99.90
20803;DHT22;10562;-33.856;151.182;2024-02-14T13:01:04;20.00;99.90
20803;DHT22;10562;-33.856;151.182;2024-02-14T13:03:36;19.90;99.90
20803;DHT22;10562;-33.856;151.182;2024-02-14T13:06:09;19.80;99.90
20803;DHT22;10562;-33.856;151.182;2024-02-14T13:08:41;19.70;99.90
20803;DHT22;10562;-33.856;151.182;2024-02-14T13:11:12;19.70;99.90
20803;DHT22;10562;-33.856;151.182;2024-02-14T13:13:44;19.80;99.90
20803;DHT22;10562;-33.856;151.182;2024-02-14T13:16:15;19.70;99.90
20803;DHT22;10562;-33.856;151.182;2024-02-14T13:18:46;19.70;99.90
20803;DHT22;10562;-33.856;151.182;2024-02-14T13:21:19;19.70;99.90
20803;DHT22;10562;-33.856;151.182;2024-02-14T13:23:49;19.70;99.90
20803;DHT22;10562;-33.856;151.182;2024-02-14T13:26:20;19.70;99.90
20803;DHT22;10562;-33.856;151.182;2024-02-14T13:28:51;19.80;99.90
20803;DHT22;10562;-33.856;151.182;2024-02-14T13:31:22;19.90;99.90
20803;DHT22;10562;-33.856;151.182;2024-02-14T13:33:53;20.00;99.90
20803;DHT22;10562;-33.856;151.182;2024-02-14T13:36:25;20.00;99.90
20803;DHT22;10562;-33.856;151.182;2024-02-14T13:38:56;20.10;99.90
20803;DHT22;10562;-33.856;151.182;2024-02-14T13:41:28;20.20;99.90
20803;DHT22;10562;-33.856;151.182;2024-02-14T13:43:59;20.30;99.90
20803;DHT22;10562;-33.856;151.182;2024-02-14T13:46:29;20.30;99.90
20803;DHT22;10562;-33.856;151.182;2024-02-14T13:49:00;20.40;99.90
20803;DHT22;10562;-33.856;151.182;2024-02-14T13:51:33;20.50;99.90
20803;DHT22;10562;-33.856;151.182;2024-02-14T13:54:03;20.50;99.90
20803;DHT22;10562;-33.856;151.182;2024-02-14T13:56:34;20.50;99.90
20803;DHT22;10562;-33.856;151.182;2024-02-14T13:59:05;20.50;99.90
20803;DHT22;10562;-33.856;151.182;2024-02-14T14:01:36;20.70;99.90
20803;DHT22;10562;-33.856;151.182;2024-02-14T14:04:08;20.70;99.90
20803;DHT22;10562;-33.856;151.182;2024-02-14T14:06:41;20.70;99.90
20803;DHT22;10562;-33.856;151.182;2024-02-14T14:09:12;20.70;99.90
20803;DHT22;10562;-33.856;151.182;2024-02-14T14:11:43;20.80;99.90
20803;DHT22;10562;-33.856;151.182;2024-02-14T14:14:29;20.80;99.90
20803;DHT22;10562;-33.856;151.182;2024-02-14T14:17:10;20.80;99.90
20803;DHT22;10562;-33.856;151.182;2024-02-14T14:19:44;20.80;99.90
20803;DHT22;10562;-33.856;151.182;2024-02-14T14:22:17;20.70;99.90
20803;DHT22;10562;-33.856;151.182;2024-02-14T14:24:47;20.70;99.90
20803;DHT22;10562;-33.856;151.182;2024-02-14T14:27:19;20.70;99.90
20803;DHT22;10562;-33.856;151.182;2024-02-14T14:29:50;20.70;99.90
20803;DHT22;10562;-33.856;151.182;2024-02-14T14:32:21;20.70;99.90
20803;DHT22;10562;-33.856;151.182;2024-02-14T14:34:52;20.70;99.90
20803;DHT22;10562;-33.856;151.182;2024-02-14T14:37:24;20.70;99.90
20803;DHT22;10562;-33.856;151.182;2024-02-14T14:39:55;20.80;99.90
20803;DHT22;10562;-33.856;151.182;2024-02-14T14:42:28;20.80;99.90
20803;DHT22;10562;-33.856;151.182;2024-02-14T14:44:59;20.80;99.90
20803;DHT22;10562;-33.856;151.182;2024-02-14T14:47:31;20.80;99.90
20803;DHT22;10562;-33.856;151.182;2024-02-14T14:50:02;20.80;99.90
20803;DHT22;10562;-33.856;151.182;2024-02-14T14:52:36;20.80;99.90
20803;DHT22;10562;-33.856;151.182;2024-02-14T14:55:08;20.70;99.90
20803;DHT22;10562;-33.856;151.182;2024-02-14T14:57:39;20.70;99.90
20803;DHT22;10562;-33.856;151.182;2024-02-14T15:00:11;20.70;99.90
20803;DHT22;10562;-33.856;151.182;2024-02-14T15:02:42;20.70;99.90
20803;DHT22;10562;-33.856;151.182;2024-02-14T15:05:13;20.80;99.90
20803;DHT22;10562;-33.856;151.182;2024-02-14T15:07:47;20.80;99.90
20803;DHT22;10562;-33.856;151.182;2024-02-14T15:10:18;20.80;99.90
20803;DHT22;10562;-33.856;151.182;2024-02-14T15:12:49;20.90;99.90
20803;DHT22;10562;-33.856;151.182;2024-02-14T15:15:20;20.90;99.90
20803;DHT22;10562;-33.856;151.182;2024-02-14T15:17:52;20.90;99.90